Hundested, Denmark
Current Conditions -  °F | °C
As of 4:50 AM on Friday 19 Dec 2014 (Local Time) from EKRK Reporting Station
Broken Clouds Broken Clouds  
Wind Chill: 42°   Ceiling: 3300
Heat Index: 48°   Visibility: 6mi
Dew Point: 45°   Wind: 15mph
Humidity: 87%   Direction: 250°WSW
Pressure: 29.44"   Gusts: NA
Location:  55.97°N, 11.87°E
Report Text: EKRK 190350Z AUTO 25013KT 9999NDV FEW018/// SCT026///BKN033/// BKN140/// 09/07 Q0997
Loading
Personal Weather Stations






























Interactive Weather Map New forecast layout! Learn more

10-Day Weather Forecast

Advertisements
Track Severe Weather on mobile